createdAt,value
2018-04-06T00:00:33.151Z,11
2018-04-06T00:05:32.898Z,12
2018-04-06T00:10:34.739Z,10
2018-04-06T00:15:33.885Z,15
2018-04-06T00:20:34.412Z,12
2018-04-06T00:25:35.408Z,13
2018-04-06T00:30:34.422Z,12
2018-04-06T00:35:32.563Z,13
2018-04-06T00:40:36.160Z,12
2018-04-06T00:45:33.091Z,13
2018-04-06T00:50:33.698Z,9
2018-04-06T00:55:39.499Z,13
2018-04-06T01:00:34.575Z,9
2018-04-06T01:05:42.727Z,10
2018-04-06T01:10:37.039Z,7
2018-04-06T01:15:32.899Z,9
2018-04-06T01:20:32.805Z,12
2018-04-06T01:25:35.317Z,15
2018-04-06T01:30:33.108Z,11
2018-04-06T01:35:33.213Z,12
2018-04-06T01:40:44.311Z,7
2018-04-06T01:45:34.039Z,8
2018-04-06T01:50:33.418Z,12
2018-04-06T01:55:33.580Z,13
2018-04-06T02:00:33.211Z,11
2018-04-06T02:05:32.477Z,13
2018-04-06T02:10:49.511Z,11
2018-04-06T02:15:42.625Z,15
2018-04-06T02:20:38.114Z,12
2018-04-06T02:25:36.967Z,15
2018-04-06T02:30:32.828Z,10
2018-04-06T02:35:33.958Z,12
2018-04-06T02:40:34.913Z,11
2018-04-06T02:45:33.291Z,12
2018-04-06T02:50:32.499Z,13
2018-04-06T02:55:33.273Z,13
2018-04-06T03:00:32.572Z,12
2018-04-06T03:05:34.288Z,13
2018-04-06T03:10:34.807Z,15
2018-04-06T03:15:32.827Z,15
2018-04-06T03:20:37.297Z,14
2018-04-06T03:25:33.339Z,14
2018-04-06T03:30:39.792Z,14
2018-04-06T03:35:34.854Z,12
2018-04-06T03:40:32.950Z,14
2018-04-06T03:45:32.152Z,16
2018-04-06T03:50:32.314Z,13
2018-04-06T03:55:32.472Z,13
2018-04-06T04:00:32.051Z,15
2018-04-06T04:05:31.839Z,16
2018-04-06T04:10:32.377Z,12
2018-04-06T04:15:31.889Z,14
2018-04-06T04:20:32.137Z,15
2018-04-06T04:25:32.469Z,19
2018-04-06T04:30:32.268Z,14
2018-04-06T04:35:32.155Z,22
2018-04-06T04:40:33.071Z,14
2018-04-06T04:45:32.989Z,21
2018-04-06T04:50:32.075Z,19
2018-04-06T04:55:32.333Z,22
2018-04-06T05:00:32.503Z,21
2018-04-06T05:05:32.414Z,21
2018-04-06T05:10:32.247Z,18
2018-04-06T05:15:32.025Z,17
2018-04-06T05:20:31.852Z,22
2018-04-06T05:25:31.679Z,20
2018-04-06T05:30:31.752Z,17
2018-04-06T05:35:32.608Z,11
2018-04-06T05:40:31.679Z,16
2018-04-06T05:45:31.937Z,17
2018-04-06T05:50:31.836Z,14
2018-04-06T05:55:32.656Z,14
2018-04-06T06:00:32.175Z,18
2018-04-06T06:05:32.002Z,21
2018-04-06T06:10:32.573Z,18
2018-04-06T06:15:32.793Z,15
2018-04-06T06:20:32.050Z,21
2018-04-06T06:25:31.946Z,15
2018-04-06T06:30:41.280Z,15
2018-04-06T06:35:32.160Z,20
2018-04-06T06:40:31.690Z,20
2018-04-06T06:45:33.050Z,21
2018-04-06T06:50:32.700Z,19
2018-04-06T06:55:32.041Z,21
2018-04-06T07:00:32.752Z,17
2018-04-06T07:05:32.327Z,22
2018-04-06T07:10:32.273Z,19
2018-04-06T07:15:32.361Z,17
2018-04-06T07:20:31.920Z,21
2018-04-06T07:25:32.272Z,16
2018-04-06T07:30:34.282Z,27
2018-04-06T07:35:31.397Z,21
2018-04-06T07:40:32.007Z,28
2018-04-06T07:45:32.689Z,29
2018-04-06T07:50:32.706Z,21
2018-04-06T07:55:35.575Z,20
2018-04-06T08:00:32.519Z,21
2018-04-06T08:05:32.564Z,28
2018-04-06T08:10:32.270Z,26
2018-04-06T08:15:32.112Z,22
2018-04-06T08:20:32.411Z,20
2018-04-06T08:25:32.104Z,27
2018-04-06T08:30:32.392Z,23
2018-04-06T08:35:34.117Z,22
2018-04-06T08:40:33.616Z,24
2018-04-06T08:45:32.687Z,29
2018-04-06T08:50:32.562Z,27
2018-04-06T08:55:32.401Z,26
2018-04-06T09:00:31.659Z,24
2018-04-06T09:05:32.457Z,30
2018-04-06T09:10:31.990Z,25
2018-04-06T09:15:31.699Z,27
2018-04-06T09:20:33.519Z,21
2018-04-06T09:25:31.522Z,26
2018-04-06T09:30:31.710Z,29
2018-04-06T09:35:31.545Z,28
2018-04-06T09:40:31.255Z,22
2018-04-06T09:45:31.663Z,24
2018-04-06T09:50:31.529Z,34
2018-04-06T09:55:31.649Z,32
2018-04-06T10:00:31.797Z,25
2018-04-06T10:05:31.672Z,36
2018-04-06T10:10:31.515Z,24
2018-04-06T10:15:31.533Z,20
2018-04-06T10:20:31.481Z,26
2018-04-06T10:25:31.456Z,27
2018-04-06T10:30:31.759Z,32
2018-04-06T10:35:31.467Z,24
2018-04-06T10:40:31.681Z,27
2018-04-06T10:45:31.405Z,22
2018-04-06T10:50:31.556Z,19
2018-04-06T10:55:31.312Z,18
2018-04-06T11:00:32.080Z,20
2018-04-06T11:05:31.508Z,19
2018-04-06T11:10:31.195Z,18
2018-04-06T11:15:31.738Z,24
2018-04-06T11:20:31.896Z,20
2018-04-06T11:25:31.294Z,19
2018-04-06T11:30:31.541Z,16
2018-04-06T11:35:31.590Z,20
2018-04-06T11:40:31.814Z,18
2018-04-06T11:45:31.855Z,17
2018-04-06T11:50:31.554Z,18
2018-04-06T11:55:31.035Z,15
2018-04-06T12:00:31.689Z,15
2018-04-06T12:05:31.404Z,16
2018-04-06T12:10:31.568Z,17
2018-04-06T12:15:30.972Z,15
2018-04-06T12:20:32.364Z,16
2018-04-06T12:25:31.222Z,20
2018-04-06T12:30:31.859Z,16
2018-04-06T12:35:31.133Z,17
2018-04-06T12:40:31.965Z,20
2018-04-06T12:45:31.442Z,20
2018-04-06T12:50:31.498Z,20
2018-04-06T12:55:31.483Z,20
2018-04-06T13:00:31.544Z,20
2018-04-06T13:05:31.417Z,20
2018-04-06T13:10:32.712Z,13
2018-04-06T13:15:30.911Z,16
2018-04-06T13:20:31.338Z,12
2018-04-06T13:25:32.454Z,11
2018-04-06T13:30:31.539Z,11
2018-04-06T13:35:30.943Z,12
2018-04-06T13:40:31.764Z,9
2018-04-06T13:45:31.392Z,10
2018-04-06T13:50:31.492Z,10
2018-04-06T13:55:32.547Z,9
2018-04-06T14:01:30.268Z,6
2018-04-06T14:05:31.278Z,6
2018-04-06T14:10:35.499Z,7
2018-04-06T14:15:31.280Z,8
2018-04-06T14:20:31.538Z,9
2018-04-06T14:25:32.245Z,8
2018-04-06T14:30:30.892Z,9
2018-04-06T14:35:31.124Z,10
2018-04-06T14:40:33.303Z,6
2018-04-06T14:45:31.384Z,9
2018-04-06T14:50:31.433Z,7
2018-04-06T14:55:30.869Z,5
2018-04-06T15:00:31.275Z,7
2018-04-06T15:05:30.920Z,5
2018-04-06T15:10:31.125Z,6
2018-04-06T15:15:31.065Z,8
2018-04-06T15:20:31.219Z,6
2018-04-06T15:25:30.982Z,8
2018-04-06T15:30:33.061Z,8
2018-04-06T15:35:31.752Z,9
2018-04-06T15:40:31.160Z,8
2018-04-06T15:45:32.066Z,7
2018-04-06T15:50:30.868Z,8
2018-04-06T15:55:31.166Z,6
2018-04-06T16:00:31.268Z,10
2018-04-06T16:05:30.825Z,10
2018-04-06T16:10:30.933Z,8
2018-04-06T16:15:31.288Z,8
2018-04-06T16:20:30.842Z,9
2018-04-06T16:25:32.033Z,7
2018-04-06T16:30:31.616Z,5
2018-04-06T16:35:31.185Z,9
2018-04-06T16:40:31.203Z,7
2018-04-06T16:45:31.969Z,9
2018-04-06T16:50:31.045Z,5
2018-04-06T16:55:30.878Z,7
2018-04-06T17:00:30.960Z,7
2018-04-06T17:05:30.775Z,7
2018-04-06T17:10:31.172Z,6
2018-04-06T17:15:31.369Z,8
2018-04-06T17:20:30.941Z,5
2018-04-06T17:25:31.245Z,6
2018-04-06T17:30:31.198Z,6
2018-04-06T17:35:30.917Z,6
2018-04-06T17:40:30.935Z,11
2018-04-06T17:45:31.297Z,7
2018-04-06T17:50:31.426Z,6
2018-04-06T17:55:31.721Z,10
2018-04-06T18:00:31.072Z,7
2018-04-06T18:05:30.947Z,7
2018-04-06T18:10:31.001Z,6
2018-04-06T18:15:31.052Z,8
2018-04-06T18:20:31.080Z,7
2018-04-06T18:25:31.015Z,7
2018-04-06T18:30:31.067Z,8
2018-04-06T18:35:30.857Z,6
2018-04-06T18:40:30.723Z,6
2018-04-06T18:45:30.871Z,8
2018-04-06T18:50:30.698Z,8
2018-04-06T18:55:30.915Z,9
2018-04-06T19:00:32.416Z,7
2018-04-06T19:05:31.521Z,6
2018-04-06T19:10:30.605Z,8
2018-04-06T19:15:32.755Z,8
2018-04-06T19:20:30.631Z,6
2018-04-06T19:25:30.862Z,6
2018-04-06T19:30:30.747Z,6
2018-04-06T19:35:30.677Z,7
2018-04-06T19:40:31.277Z,7
2018-04-06T19:45:32.353Z,6
2018-04-06T19:50:30.833Z,6
2018-04-06T19:55:30.451Z,5
2018-04-06T20:00:32.037Z,5
2018-04-06T20:05:30.670Z,4
2018-04-06T20:10:31.290Z,4
2018-04-06T20:15:33.263Z,6
2018-04-06T20:20:30.966Z,7
2018-04-06T20:25:30.744Z,7
2018-04-06T20:30:31.654Z,7
2018-04-06T20:35:30.724Z,5
2018-04-06T20:40:30.688Z,5
2018-04-06T20:45:30.983Z,6
2018-04-06T20:50:30.740Z,9
2018-04-06T20:55:32.229Z,8
2018-04-06T21:00:31.782Z,8
2018-04-06T21:05:30.662Z,6
2018-04-06T21:10:30.859Z,5
2018-04-06T21:15:31.900Z,7
2018-04-06T21:20:30.524Z,6
2018-04-06T21:25:30.913Z,7
2018-04-06T21:30:33.182Z,7
2018-04-06T21:35:30.222Z,7
2018-04-06T21:40:30.570Z,7
2018-04-06T21:45:31.153Z,6
2018-04-06T21:50:30.461Z,6
2018-04-06T21:55:30.804Z,7
2018-04-06T22:00:31.848Z,7
2018-04-06T22:05:30.516Z,6
2018-04-06T22:10:30.671Z,6
2018-04-06T22:15:32.316Z,9
2018-04-06T22:20:30.441Z,9
2018-04-06T22:25:30.620Z,8
2018-04-06T22:30:31.520Z,6
2018-04-06T22:35:30.340Z,4
2018-04-06T22:40:30.455Z,10
2018-04-06T22:45:31.541Z,6
2018-04-06T22:50:30.756Z,7
2018-04-06T22:55:30.511Z,11
2018-04-06T23:00:30.564Z,10
2018-04-06T23:05:30.243Z,8
2018-04-06T23:10:30.448Z,9
2018-04-06T23:15:30.325Z,9
2018-04-06T23:20:30.291Z,7
2018-04-06T23:25:30.386Z,9
2018-04-06T23:30:30.643Z,10
2018-04-06T23:35:31.054Z,9
2018-04-06T23:43:17.074Z,9
2018-04-06T23:45:30.250Z,10
2018-04-06T23:50:49.872Z,9
2018-04-06T23:56:41.907Z,9
